createdAt,value
2018-12-06T00:00:07.414Z,79.70
2018-12-06T00:05:53.090Z,80.14
2018-12-06T00:08:22.399Z,80.99
2018-12-06T00:10:51.727Z,81.08
2018-12-06T00:13:21.052Z,81.29
2018-12-06T00:15:50.145Z,80.12
2018-12-06T00:18:19.339Z,80.62
2018-12-06T00:20:49.660Z,80.53
2018-12-06T00:23:18.847Z,80.24
2018-12-06T00:25:48.034Z,80.02
2018-12-06T00:28:17.342Z,79.80
2018-12-06T00:30:46.592Z,79.59
2018-12-06T00:33:15.981Z,79.62
2018-12-06T00:35:45.073Z,80.38
2018-12-06T00:38:14.244Z,79.65
2018-12-06T00:40:43.484Z,79.90
2018-12-06T00:43:12.778Z,80.31
2018-12-06T00:45:42.078Z,80.04
2018-12-06T00:48:11.203Z,80.48
2018-12-06T00:50:40.464Z,81.26
2018-12-06T00:53:09.626Z,80.86
2018-12-06T00:55:38.737Z,81.63
2018-12-06T00:58:08.117Z,81.19
2018-12-06T01:00:37.297Z,80.25
2018-12-06T01:03:06.420Z,79.64
2018-12-06T01:05:35.631Z,80.40
2018-12-06T01:08:05.067Z,80.84
2018-12-06T01:10:34.140Z,80.69
2018-12-06T01:13:03.503Z,80.69
2018-12-06T01:15:32.623Z,80.46
2018-12-06T01:18:01.731Z,81.21
2018-12-06T01:20:30.916Z,81.64
2018-12-06T01:23:00.155Z,81.45
2018-12-06T01:25:29.459Z,82.91
2018-12-06T01:27:58.591Z,82.51
2018-12-06T01:30:29.480Z,82.91
2018-12-06T01:32:58.580Z,82.94
2018-12-06T01:35:27.687Z,82.75
2018-12-06T01:37:56.793Z,83.78
2018-12-06T01:40:25.894Z,84.01
2018-12-06T01:42:54.982Z,83.77
2018-12-06T01:45:24.174Z,83.37
2018-12-06T01:47:53.316Z,83.75
2018-12-06T01:50:22.454Z,83.65
2018-12-06T01:52:51.556Z,83.43
2018-12-06T01:55:20.777Z,83.72
2018-12-06T01:57:49.945Z,82.79
2018-12-06T02:00:19.132Z,83.02
2018-12-06T02:02:48.367Z,83.69
2018-12-06T02:05:17.681Z,83.11
2018-12-06T02:07:46.793Z,82.55
2018-12-06T02:10:15.887Z,82.45
2018-12-06T02:12:45.044Z,82.33
2018-12-06T02:15:14.375Z,82.35
2018-12-06T02:17:43.480Z,82.69
2018-12-06T02:20:12.593Z,82.53
2018-12-06T02:22:41.796Z,82.88
2018-12-06T02:25:10.995Z,82.41
2018-12-06T02:27:40.132Z,83.14
2018-12-06T02:30:09.504Z,83.58
2018-12-06T02:32:38.622Z,84.20
2018-12-06T02:35:07.855Z,84.05
2018-12-06T02:37:36.952Z,84.24
2018-12-06T02:40:07.132Z,84.55
2018-12-06T02:42:36.565Z,85.01
2018-12-06T02:45:05.967Z,85.50
2018-12-06T02:47:35.063Z,84.96
2018-12-06T02:50:04.582Z,85.75
2018-12-06T02:52:33.706Z,85.25
2018-12-06T02:55:02.814Z,85.13
2018-12-06T02:57:31.971Z,85.85
2018-12-06T03:00:01.191Z,85.52
2018-12-06T03:02:30.285Z,85.42
2018-12-06T03:04:59.419Z,85.42
2018-12-06T03:07:28.538Z,86.04
2018-12-06T03:09:57.905Z,85.83
2018-12-06T03:12:27.134Z,85.43
2018-12-06T03:14:56.230Z,86.03
2018-12-06T03:17:25.557Z,86.11
2018-12-06T03:19:54.896Z,86.02
2018-12-06T03:22:24.059Z,85.83
2018-12-06T03:24:53.153Z,86.34
2018-12-06T03:27:22.290Z,86.38
2018-12-06T03:29:51.419Z,86.39
2018-12-06T03:32:20.637Z,85.91
2018-12-06T03:34:49.964Z,86.47
2018-12-06T03:37:19.051Z,86.79
2018-12-06T03:39:48.140Z,86.42
2018-12-06T03:42:17.294Z,87.02
2018-12-06T03:44:46.400Z,87.30
2018-12-06T03:47:15.502Z,86.60
2018-12-06T03:49:44.651Z,87.38
2018-12-06T03:52:13.904Z,87.00
2018-12-06T03:54:43.029Z,87.02
2018-12-06T03:57:12.189Z,86.79
2018-12-06T03:59:41.326Z,86.68
2018-12-06T04:02:10.424Z,86.19
2018-12-06T04:04:39.620Z,85.92
2018-12-06T04:07:08.728Z,86.57
2018-12-06T04:09:37.825Z,85.90
2018-12-06T04:12:06.949Z,85.96
2018-12-06T04:14:36.043Z,85.99
2018-12-06T04:17:05.154Z,87.01
2018-12-06T04:19:34.264Z,86.77
2018-12-06T04:22:03.372Z,86.38
2018-12-06T04:24:32.469Z,86.28
2018-12-06T04:27:01.599Z,86.58
2018-12-06T04:29:30.687Z,86.93
2018-12-06T04:31:59.766Z,86.74
2018-12-06T04:34:28.902Z,86.98
2018-12-06T04:36:57.995Z,86.26
2018-12-06T04:39:27.088Z,86.68
2018-12-06T04:41:56.317Z,86.89
2018-12-06T04:44:25.424Z,86.90
2018-12-06T04:46:54.536Z,86.89
2018-12-06T04:49:23.698Z,86.41
2018-12-06T04:51:52.811Z,87.36
2018-12-06T04:54:21.905Z,87.25
2018-12-06T04:56:51.050Z,86.76
2018-12-06T04:59:20.180Z,86.86
2018-12-06T05:01:49.255Z,87.54
2018-12-06T05:04:18.470Z,87.08
2018-12-06T05:06:47.571Z,87.32
2018-12-06T05:09:16.719Z,87.90
2018-12-06T05:11:46.075Z,87.09
2018-12-06T05:14:15.171Z,87.20
2018-12-06T05:16:44.529Z,87.45
2018-12-06T05:19:13.643Z,87.62
2018-12-06T05:21:42.736Z,87.49
2018-12-06T05:24:11.962Z,87.90
2018-12-06T05:26:41.204Z,87.41
2018-12-06T05:29:10.395Z,87.47
2018-12-06T05:31:39.486Z,87.44
2018-12-06T05:34:08.756Z,88.01
2018-12-06T05:36:37.869Z,88.53
2018-12-06T05:39:07.855Z,87.89
2018-12-06T05:41:36.956Z,88.70
2018-12-06T05:44:06.048Z,88.03
2018-12-06T05:46:35.130Z,88.57
2018-12-06T05:49:04.246Z,88.15
2018-12-06T05:51:33.437Z,88.63
2018-12-06T05:54:02.547Z,88.62
2018-12-06T05:56:31.695Z,88.67
2018-12-06T05:59:04.877Z,88.72
2018-12-06T06:01:39.965Z,88.68
2018-12-06T06:04:09.195Z,88.45
2018-12-06T06:06:38.280Z,88.15
2018-12-06T06:09:07.927Z,88.96
2018-12-06T06:11:37.032Z,88.96
2018-12-06T06:14:06.263Z,88.31
2018-12-06T06:16:35.383Z,89.19
2018-12-06T06:19:04.626Z,89.12
2018-12-06T06:21:34.741Z,88.93
2018-12-06T06:24:04.070Z,89.00
2018-12-06T06:26:33.167Z,89.45
2018-12-06T06:29:02.258Z,89.16
2018-12-06T06:31:31.390Z,89.48
2018-12-06T06:34:00.520Z,89.34
2018-12-06T06:36:29.650Z,88.60
2018-12-06T06:38:58.790Z,89.35
2018-12-06T06:41:27.987Z,89.38
2018-12-06T06:43:57.120Z,88.83
2018-12-06T06:46:26.376Z,89.25
2018-12-06T06:48:55.462Z,89.21
2018-12-06T06:51:24.712Z,88.60
2018-12-06T06:53:53.856Z,89.08
2018-12-06T06:56:23.055Z,89.12
2018-12-06T06:58:52.186Z,88.21
2018-12-06T07:01:21.348Z,88.31
2018-12-06T07:03:50.534Z,88.57
2018-12-06T07:06:19.644Z,88.69
2018-12-06T07:08:48.851Z,88.16
2018-12-06T07:11:18.223Z,87.92
2018-12-06T07:13:47.306Z,88.07
2018-12-06T07:16:16.428Z,88.43
2018-12-06T07:18:45.598Z,87.89
2018-12-06T07:21:15.803Z,87.49
2018-12-06T07:23:45.184Z,88.37
2018-12-06T07:26:14.295Z,88.11
2018-12-06T07:28:49.774Z,88.19
2018-12-06T07:31:18.931Z,87.39
2018-12-06T07:33:48.126Z,88.23
2018-12-06T07:36:17.254Z,87.74
2018-12-06T07:38:50.487Z,88.43
2018-12-06T07:41:21.307Z,88.24
2018-12-06T07:43:50.863Z,87.15
2018-12-06T07:46:20.958Z,87.57
2018-12-06T07:48:52.590Z,86.67
2018-12-06T07:51:21.718Z,86.66
2018-12-06T07:53:50.855Z,85.51
2018-12-06T07:56:21.087Z,85.11
2018-12-06T07:58:51.484Z,85.22
2018-12-06T08:01:22.659Z,84.84
2018-12-06T08:03:51.735Z,84.37
2018-12-06T08:06:20.819Z,84.26
2018-12-06T08:08:49.923Z,83.83
2018-12-06T08:11:19.584Z,84.26
2018-12-06T08:13:48.873Z,82.99
2018-12-06T08:16:18.001Z,82.82
2018-12-06T08:18:47.259Z,82.24
2018-12-06T08:21:16.577Z,82.24
2018-12-06T08:23:46.413Z,82.20
2018-12-06T08:26:15.515Z,82.92
2018-12-06T08:28:45.269Z,82.13
2018-12-06T08:31:18.615Z,81.71
2018-12-06T08:33:47.707Z,82.27
2018-12-06T08:36:18.407Z,82.49
2018-12-06T08:38:47.524Z,83.10
2018-12-06T08:41:20.101Z,81.74
2018-12-06T08:43:49.226Z,82.37
2018-12-06T08:46:19.716Z,82.43
2018-12-06T08:48:50.946Z,83.04
2018-12-06T08:51:22.456Z,83.36
2018-12-06T08:53:54.815Z,81.89
2018-12-06T08:56:24.015Z,81.23
2018-12-06T08:58:53.249Z,81.59
2018-12-06T09:01:23.350Z,81.52
2018-12-06T09:03:57.064Z,79.87
2018-12-06T09:06:26.196Z,81.05
2018-12-06T09:08:55.399Z,82.03
2018-12-06T09:11:24.735Z,82.12
2018-12-06T09:17:16.925Z,82.68
2018-12-06T09:19:46.763Z,82.45
2018-12-06T09:22:20.375Z,83.33
2018-12-06T09:24:49.533Z,83.18
2018-12-06T09:27:18.658Z,83.15
2018-12-06T09:29:49.124Z,82.07
2018-12-06T09:32:18.214Z,83.16
2018-12-06T09:34:47.302Z,82.42
2018-12-06T09:37:16.593Z,82.62
2018-12-06T09:39:56.799Z,82.44
2018-12-06T09:42:31.046Z,82.09
2018-12-06T09:45:00.248Z,82.00
2018-12-06T09:47:34.119Z,81.97
2018-12-06T09:50:03.447Z,81.65
2018-12-06T09:52:32.587Z,81.19
2018-12-06T09:55:01.792Z,82.06
2018-12-06T09:57:31.238Z,81.33
2018-12-06T10:00:01.432Z,81.45
2018-12-06T10:02:31.251Z,82.00
2018-12-06T10:05:00.375Z,81.01
2018-12-06T10:07:30.695Z,80.71
2018-12-06T10:09:59.828Z,80.37
2018-12-06T10:12:29.051Z,79.95
2018-12-06T10:14:58.429Z,79.76
2018-12-06T10:17:27.590Z,80.73
2018-12-06T10:19:56.775Z,81.21
2018-12-06T10:22:26.074Z,79.79
2018-12-06T10:24:59.054Z,80.44
2018-12-06T10:27:32.646Z,80.20
2018-12-06T10:30:07.248Z,80.62
2018-12-06T10:32:39.821Z,80.03
2018-12-06T10:35:10.134Z,79.71
2018-12-06T10:37:43.756Z,79.57
2018-12-06T10:40:12.858Z,79.60
2018-12-06T10:42:45.420Z,79.90
2018-12-06T10:45:15.410Z,79.38
2018-12-06T10:47:44.596Z,79.32
2018-12-06T10:50:14.280Z,79.11
2018-12-06T10:52:43.491Z,78.67
2018-12-06T10:55:12.846Z,78.42
2018-12-06T10:57:41.930Z,78.18
2018-12-06T11:00:15.347Z,78.31
2018-12-06T11:02:48.494Z,77.54
2018-12-06T11:05:18.181Z,78.13
2018-12-06T11:07:47.377Z,77.85
2018-12-06T11:10:16.455Z,77.54
2018-12-06T11:12:46.767Z,77.79
2018-12-06T11:15:16.885Z,78.13
2018-12-06T11:17:51.314Z,78.18
2018-12-06T11:20:24.095Z,78.30
2018-12-06T11:22:55.637Z,78.16
2018-12-06T11:25:24.759Z,78.20
2018-12-06T11:27:53.843Z,78.44
2018-12-06T11:30:22.955Z,79.41
2018-12-06T11:32:52.266Z,79.28
2018-12-06T11:35:21.423Z,78.50
2018-12-06T11:37:50.551Z,78.41
2018-12-06T11:40:20.891Z,79.25
2018-12-06T11:42:49.993Z,79.44
2018-12-06T11:45:19.174Z,78.77
2018-12-06T11:47:48.289Z,78.56
2018-12-06T11:50:17.380Z,78.36
2018-12-06T11:52:47.187Z,77.93
2018-12-06T11:55:16.346Z,77.59
2018-12-06T11:57:45.490Z,78.14
2018-12-06T12:00:14.787Z,78.36
2018-12-06T12:02:44.274Z,77.85
2018-12-06T12:05:17.765Z,77.64
2018-12-06T12:07:46.857Z,77.55
2018-12-06T12:10:17.854Z,77.87
2018-12-06T12:12:46.981Z,76.60
2018-12-06T12:15:16.075Z,76.36
2018-12-06T12:17:45.419Z,76.30
2018-12-06T12:20:19.678Z,76.32
2018-12-06T12:22:48.817Z,75.55
2018-12-06T12:25:18.071Z,75.10
2018-12-06T12:27:47.234Z,71.68
2018-12-06T12:30:16.345Z,64.26
2018-12-06T12:32:47.442Z,47.60
2018-12-06T12:35:18.838Z,48.67
2018-12-06T12:37:48.310Z,45.69
2018-12-06T12:40:17.914Z,40.27
2018-12-06T12:42:47.050Z,37.86
2018-12-06T12:45:16.250Z,43.65
2018-12-06T12:47:45.492Z,46.29
2018-12-06T12:50:14.806Z,42.10
2018-12-06T12:52:44.106Z,44.43
2018-12-06T12:55:13.408Z,41.69
2018-12-06T12:57:42.551Z,49.50
2018-12-06T13:00:11.905Z,55.80
2018-12-06T13:02:41.176Z,50.27
2018-12-06T13:05:10.404Z,55.21
2018-12-06T13:07:39.732Z,48.60
2018-12-06T13:10:09.040Z,58.12
2018-12-06T13:12:38.361Z,60.73
2018-12-06T13:15:08.326Z,62.62
2018-12-06T13:17:37.815Z,60.55
2018-12-06T13:20:07.620Z,58.75
2018-12-06T13:22:37.068Z,60.19
2018-12-06T13:25:06.872Z,63.17
2018-12-06T13:27:36.431Z,59.29
2018-12-06T13:30:06.125Z,57.50
2018-12-06T13:32:35.362Z,58.94
2018-12-06T13:35:05.395Z,60.35
2018-12-06T13:37:34.497Z,57.06
2018-12-06T13:40:04.004Z,50.06
2018-12-06T13:42:33.242Z,56.75
2018-12-06T13:45:03.562Z,48.57
2018-12-06T13:47:33.232Z,58.09
2018-12-06T13:50:07.860Z,60.54
2018-12-06T13:52:36.970Z,62.34
2018-12-06T13:55:06.490Z,63.54
2018-12-06T13:57:35.671Z,63.80
2018-12-06T14:00:06.406Z,64.65
2018-12-06T14:02:35.903Z,65.13
2018-12-06T14:05:05.219Z,65.88
2018-12-06T14:07:37.079Z,66.78
2018-12-06T14:10:06.303Z,67.68
2018-12-06T14:12:40.075Z,67.36
2018-12-06T14:15:09.371Z,67.69
2018-12-06T14:17:38.824Z,67.99
2018-12-06T14:20:10.271Z,68.23
2018-12-06T14:22:39.616Z,68.56
2018-12-06T14:25:08.956Z,68.28
2018-12-06T14:27:39.472Z,68.99
2018-12-06T14:30:09.010Z,68.89
2018-12-06T14:32:38.284Z,69.65
2018-12-06T14:35:09.898Z,69.48
2018-12-06T14:37:39.024Z,69.88
2018-12-06T14:40:08.573Z,69.12
2018-12-06T14:42:37.678Z,70.09
2018-12-06T14:45:07.582Z,69.42
2018-12-06T14:47:36.802Z,70.41
2018-12-06T14:50:06.957Z,70.11
2018-12-06T14:52:36.258Z,69.71
2018-12-06T14:55:06.753Z,70.47
2018-12-06T14:57:36.656Z,70.12
2018-12-06T15:00:10.287Z,70.75
2018-12-06T15:02:39.475Z,71.01
2018-12-06T15:05:09.879Z,70.61
2018-12-06T15:07:39.395Z,70.74
2018-12-06T15:10:08.995Z,71.45
2018-12-06T15:12:41.680Z,70.96
2018-12-06T15:15:10.944Z,71.45
2018-12-06T15:17:41.876Z,71.37
2018-12-06T15:20:11.082Z,71.15
2018-12-06T15:22:40.620Z,71.90
2018-12-06T15:25:09.736Z,72.25
2018-12-06T15:27:39.172Z,72.37
2018-12-06T15:30:10.085Z,71.78
2018-12-06T15:32:39.284Z,72.82
2018-12-06T15:35:08.679Z,72.72
2018-12-06T15:37:38.591Z,72.36
2018-12-06T15:40:07.896Z,72.33
2018-12-06T15:42:37.833Z,72.21
2018-12-06T15:45:07.246Z,72.58
2018-12-06T15:47:36.448Z,73.60
2018-12-06T15:50:06.076Z,73.25
2018-12-06T15:52:35.935Z,72.99
2018-12-06T15:55:05.722Z,73.45
2018-12-06T15:57:34.811Z,73.32
2018-12-06T16:00:05.476Z,73.96
2018-12-06T16:02:34.644Z,74.35
2018-12-06T16:05:04.988Z,73.73
2018-12-06T16:07:34.337Z,74.24
2018-12-06T16:10:04.470Z,74.33
2018-12-06T16:12:33.936Z,73.98
2018-12-06T16:15:03.560Z,74.09
2018-12-06T16:17:32.725Z,75.10
2018-12-06T16:20:01.955Z,74.41
2018-12-06T16:22:31.080Z,74.34
2018-12-06T16:25:00.453Z,74.74
2018-12-06T16:27:31.516Z,75.57
2018-12-06T16:30:00.981Z,75.01
2018-12-06T16:32:30.098Z,74.93
2018-12-06T16:34:59.272Z,75.45
2018-12-06T16:37:28.563Z,76.11
2018-12-06T16:40:07.605Z,75.34
2018-12-06T16:42:37.493Z,75.83
2018-12-06T16:45:07.192Z,75.89
2018-12-06T16:47:36.325Z,75.66
2018-12-06T16:50:06.487Z,76.48
2018-12-06T16:52:36.318Z,76.43
2018-12-06T16:55:07.210Z,76.20
2018-12-06T16:57:36.356Z,76.06
2018-12-06T17:00:08.833Z,75.85
2018-12-06T17:02:37.973Z,75.76
2018-12-06T17:05:07.801Z,76.31
2018-12-06T17:07:37.063Z,76.31
2018-12-06T17:10:07.461Z,76.15
2018-12-06T17:12:36.587Z,75.72
2018-12-06T17:15:06.346Z,76.37
2018-12-06T17:17:35.458Z,75.95
2018-12-06T17:20:05.580Z,76.32
2018-12-06T17:22:34.802Z,75.96
2018-12-06T17:25:04.484Z,76.83
2018-12-06T17:27:33.577Z,76.29
2018-12-06T17:30:03.424Z,77.17
2018-12-06T17:32:33.850Z,77.15
2018-12-06T17:35:03.056Z,77.03
2018-12-06T17:37:32.474Z,76.70
2018-12-06T17:40:01.564Z,76.30
2018-12-06T17:42:30.666Z,77.14
2018-12-06T17:45:00.438Z,76.73
2018-12-06T17:47:30.442Z,76.38
2018-12-06T17:49:59.580Z,77.00
2018-12-06T17:52:28.946Z,76.46
2018-12-06T17:54:58.104Z,76.49
2018-12-06T17:57:27.220Z,76.73
2018-12-06T17:59:56.448Z,76.04
2018-12-06T18:02:25.860Z,76.36
2018-12-06T18:04:54.941Z,76.16
2018-12-06T18:07:24.458Z,76.36
2018-12-06T18:09:54.494Z,76.57
2018-12-06T18:12:24.356Z,75.91
2018-12-06T18:14:54.120Z,76.00
2018-12-06T18:17:23.199Z,75.80
2018-12-06T18:19:52.786Z,75.87
2018-12-06T18:22:21.907Z,75.84
2018-12-06T18:24:51.003Z,76.52
2018-12-06T18:27:20.202Z,76.20
2018-12-06T18:29:49.332Z,76.23
2018-12-06T18:32:18.565Z,76.03
2018-12-06T18:34:47.779Z,76.09
2018-12-06T18:37:16.911Z,75.49
2018-12-06T18:39:46.047Z,75.37
2018-12-06T18:42:15.145Z,75.96
2018-12-06T18:44:44.287Z,75.21
2018-12-06T18:47:13.620Z,75.92
2018-12-06T18:49:42.893Z,75.48
2018-12-06T18:52:12.018Z,76.06
2018-12-06T18:54:41.512Z,75.43
2018-12-06T18:57:10.589Z,76.00
2018-12-06T18:59:39.710Z,75.86
2018-12-06T19:02:08.911Z,75.30
2018-12-06T19:04:37.999Z,75.04
2018-12-06T19:07:07.294Z,76.05
2018-12-06T19:09:36.360Z,76.14
2018-12-06T19:12:05.444Z,75.73
2018-12-06T19:14:34.542Z,75.71
2018-12-06T19:17:03.654Z,75.57
2018-12-06T19:19:37.939Z,75.76
2018-12-06T19:22:07.139Z,75.60
2018-12-06T19:24:36.350Z,75.45
2018-12-06T19:27:05.655Z,75.19
2018-12-06T19:29:34.871Z,75.07
2018-12-06T19:32:04.279Z,75.97
2018-12-06T19:34:33.943Z,75.45
2018-12-06T19:37:03.107Z,75.58
2018-12-06T19:39:32.214Z,75.20
2018-12-06T19:42:01.307Z,75.71
2018-12-06T19:44:33.929Z,75.36
2018-12-06T19:47:04.826Z,75.78
2018-12-06T19:49:35.229Z,75.51
2018-12-06T19:52:04.744Z,75.41
2018-12-06T19:54:38.263Z,75.64
2018-12-06T19:57:07.355Z,75.77
2018-12-06T19:59:36.460Z,75.19
2018-12-06T20:02:09.568Z,75.85
2018-12-06T20:04:38.671Z,75.60
2018-12-06T20:07:09.503Z,75.84
2018-12-06T20:09:38.583Z,75.59
2018-12-06T20:12:08.161Z,75.01
2018-12-06T20:14:37.281Z,75.43
2018-12-06T20:17:06.356Z,74.35
2018-12-06T20:19:35.464Z,74.57
2018-12-06T20:22:05.079Z,75.16
2018-12-06T20:24:34.193Z,74.54
2018-12-06T20:27:03.286Z,74.56
2018-12-06T20:29:32.379Z,73.80
2018-12-06T20:32:01.599Z,74.87
2018-12-06T20:34:30.703Z,74.76
2018-12-06T20:36:59.898Z,73.93
2018-12-06T20:39:29.798Z,74.11
2018-12-06T20:41:58.888Z,73.49
2018-12-06T20:44:28.125Z,74.62
2018-12-06T20:46:57.236Z,74.48
2018-12-06T20:49:26.383Z,73.97
2018-12-06T20:51:55.711Z,74.42
2018-12-06T20:54:24.883Z,73.51
2018-12-06T20:56:55.117Z,74.23
2018-12-06T20:59:24.414Z,74.24
2018-12-06T21:01:54.896Z,73.14
2018-12-06T21:04:24.773Z,73.47
2018-12-06T21:06:53.876Z,73.77
2018-12-06T21:09:23.426Z,73.15
2018-12-06T21:11:53.034Z,74.23
2018-12-06T21:14:22.330Z,73.21
2018-12-06T21:16:51.690Z,74.02
2018-12-06T21:19:20.892Z,74.13
2018-12-06T21:21:50.036Z,73.47
2018-12-06T21:24:19.118Z,73.24
2018-12-06T21:26:48.298Z,73.84
2018-12-06T21:29:17.535Z,74.14
2018-12-06T21:31:46.682Z,73.13
2018-12-06T21:34:15.780Z,72.88
2018-12-06T21:36:45.142Z,73.56
2018-12-06T21:39:14.278Z,73.42
2018-12-06T21:41:43.374Z,72.31
2018-12-06T21:44:12.502Z,72.99
2018-12-06T21:46:41.582Z,72.93
2018-12-06T21:49:10.691Z,72.54
2018-12-06T21:51:39.853Z,72.64
2018-12-06T21:54:09.256Z,72.74
2018-12-06T21:56:38.359Z,72.81
2018-12-06T21:59:07.476Z,71.96
2018-12-06T22:01:37.106Z,72.46
2018-12-06T22:04:06.494Z,71.87
2018-12-06T22:06:35.642Z,71.98
2018-12-06T22:09:07.280Z,71.10
2018-12-06T22:11:36.404Z,71.59
2018-12-06T22:14:05.832Z,71.70
2018-12-06T22:16:34.928Z,71.34
2018-12-06T22:19:04.194Z,72.09
2018-12-06T22:21:33.294Z,72.15
2018-12-06T22:24:02.402Z,71.37
2018-12-06T22:26:31.485Z,71.90
2018-12-06T22:29:01.198Z,71.05
2018-12-06T22:31:30.404Z,71.30
2018-12-06T22:33:59.494Z,71.76
2018-12-06T22:36:28.680Z,71.55
2018-12-06T22:38:57.804Z,71.63
2018-12-06T22:41:26.903Z,71.68
2018-12-06T22:43:55.998Z,72.04
2018-12-06T22:46:25.170Z,71.71
2018-12-06T22:48:54.598Z,71.11
2018-12-06T22:51:24.463Z,71.71
2018-12-06T22:53:53.920Z,71.07
2018-12-06T22:56:23.152Z,72.01
2018-12-06T22:58:52.506Z,71.54
2018-12-06T23:01:27.415Z,70.64
2018-12-06T23:03:56.618Z,71.02
2018-12-06T23:06:25.722Z,71.01
2018-12-06T23:08:54.835Z,71.82
2018-12-06T23:11:24.038Z,71.44
2018-12-06T23:13:53.125Z,71.48
2018-12-06T23:16:22.336Z,71.65
2018-12-06T23:18:51.488Z,71.72
2018-12-06T23:21:20.702Z,70.67
2018-12-06T23:23:49.767Z,70.68
2018-12-06T23:26:18.883Z,71.18
2018-12-06T23:28:48.076Z,71.31
2018-12-06T23:31:17.402Z,71.16
2018-12-06T23:33:46.843Z,71.63
2018-12-06T23:36:15.988Z,71.70
2018-12-06T23:38:45.099Z,71.07
2018-12-06T23:41:14.297Z,71.80
2018-12-06T23:43:43.467Z,70.65
2018-12-06T23:46:12.566Z,70.41
2018-12-06T23:48:41.786Z,71.25
2018-12-06T23:51:22.269Z,70.92
2018-12-06T23:53:51.367Z,71.09
2018-12-06T23:56:20.459Z,70.86
2018-12-06T23:58:49.544Z,71.42
